sensor_id;sensor_type;location;lat;lon;timestamp;pressure;altitude;pressure_sealevel;temperature;humidity
54459;BME280;40368;49.350;8.152;2022-08-06T00:00:05;1008.1;;;28.99;31.45
54459;BME280;40368;49.350;8.152;2022-08-06T00:01:18;1008.1;;;28.91;31.87
54459;BME280;40368;49.350;8.152;2022-08-06T00:02:32;1008.1;;;28.88;32
54459;BME280;40368;49.350;8.152;2022-08-06T00:03:09;1008.1;;;28.9;31.34
54459;BME280;40368;49.350;8.152;2022-08-06T00:04:23;1008.1;;;28.89;31.83
54459;BME280;40368;49.350;8.152;2022-08-06T00:05:01;1007.1;;;29.26;32.53
54459;BME280;40368;49.350;8.152;2022-08-06T00:06:14;1008.2;;;28.97;31.31
54459;BME280;40368;49.350;8.152;2022-08-06T00:07:29;1008.2;;;28.99;31.64
54459;BME280;40368;49.350;8.152;2022-08-06T00:08:06;1006;;;30.13;32.52
54459;BME280;40368;49.350;8.152;2022-08-06T00:09:20;1008.2;;;28.88;31.38
54459;BME280;40368;49.350;8.152;2022-08-06T00:11:11;1008.2;;;28.75;31.46
54459;BME280;40368;49.350;8.152;2022-08-06T00:13:02;1008.3;;;28.72;31.67
54459;BME280;40368;49.350;8.152;2022-08-06T00:14:16;1008.3;;;28.75;31.87
54459;BME280;40368;49.350;8.152;2022-08-06T00:15:30;1008.3;;;28.8;31.69
54459;BME280;40368;49.350;8.152;2022-08-06T00:16:07;1008.3;;;28.78;31.62
54459;BME280;40368;49.350;8.152;2022-08-06T00:17:22;1008.4;;;28.82;31.71
54459;BME280;40368;49.350;8.152;2022-08-06T00:18:36;1008.3;;;28.8;31.61
54459;BME280;40368;49.350;8.152;2022-08-06T00:19:13;1008.3;;;28.83;31.56
54459;BME280;40368;49.350;8.152;2022-08-06T00:20:27;1008.4;;;28.78;31.83
54459;BME280;40368;49.350;8.152;2022-08-06T00:21:04;1008.4;;;28.76;31.88
54459;BME280;40368;49.350;8.152;2022-08-06T00:22:18;1008.4;;;28.77;31.7
54459;BME280;40368;49.350;8.152;2022-08-06T00:23:32;1008.4;;;28.77;31.66
54459;BME280;40368;49.350;8.152;2022-08-06T00:24:09;1008.4;;;28.78;31.63
54459;BME280;40368;49.350;8.152;2022-08-06T00:25:23;1008.4;;;28.77;31.62
54459;BME280;40368;49.350;8.152;2022-08-06T00:26:00;1008.4;;;28.76;31.55
54459;BME280;40368;49.350;8.152;2022-08-06T00:27:15;1008.4;;;28.75;31.22
54459;BME280;40368;49.350;8.152;2022-08-06T00:28:29;1008.3;;;28.69;31.44
54459;BME280;40368;49.350;8.152;2022-08-06T00:29:06;1008.4;;;28.72;31.31
54459;BME280;40368;49.350;8.152;2022-08-06T00:30:20;1008.4;;;28.68;31.27
54459;BME280;40368;49.350;8.152;2022-08-06T00:31:34;1008.4;;;28.66;31.74
54459;BME280;40368;49.350;8.152;2022-08-06T00:32:11;1008.4;;;28.65;31.57
54459;BME280;40368;49.350;8.152;2022-08-06T00:33:25;1008.4;;;28.66;31.49
54459;BME280;40368;49.350;8.152;2022-08-06T00:34:02;1008.4;;;28.69;31.42
54459;BME280;40368;49.350;8.152;2022-08-06T00:35:16;1008.4;;;28.61;31.43
54459;BME280;40368;49.350;8.152;2022-08-06T00:36:31;1008.4;;;28.59;32.19
54459;BME280;40368;49.350;8.152;2022-08-06T00:37:08;1008.4;;;28.59;31.59
54459;BME280;40368;49.350;8.152;2022-08-06T00:38:22;1008.4;;;28.67;31.53
54459;BME280;40368;49.350;8.152;2022-08-06T00:39:00;1008.4;;;28.66;31.48
54459;BME280;40368;49.350;8.152;2022-08-06T00:40:13;1008.4;;;28.68;31.88
54459;BME280;40368;49.350;8.152;2022-08-06T00:41:28;1008.5;;;28.75;31.63
54459;BME280;40368;49.350;8.152;2022-08-06T00:42:04;1008.5;;;28.73;31.43
54459;BME280;40368;49.350;8.152;2022-08-06T00:43:18;1008.5;;;28.76;31.52
54459;BME280;40368;49.350;8.152;2022-08-06T00:44:32;1008.5;;;28.69;30.91
54459;BME280;40368;49.350;8.152;2022-08-06T00:45:09;1008.5;;;28.76;31.28
54459;BME280;40368;49.350;8.152;2022-08-06T00:46:24;1008.5;;;28.62;31.36
54459;BME280;40368;49.350;8.152;2022-08-06T00:47:01;1008.5;;;28.66;31.84
54459;BME280;40368;49.350;8.152;2022-08-06T00:48:15;1008.6;;;28.58;31.75
54459;BME280;40368;49.350;8.152;2022-08-06T00:49:29;1008.6;;;28.6;31.75
54459;BME280;40368;49.350;8.152;2022-08-06T00:50:06;1008.5;;;28.59;31.2
54459;BME280;40368;49.350;8.152;2022-08-06T00:52:26;1008.6;;;28.63;31.13
54459;BME280;40368;49.350;8.152;2022-08-06T00:53:03;1008.6;;;28.64;31.44
54459;BME280;40368;49.350;8.152;2022-08-06T00:54:17;1008.6;;;28.61;31.45
54459;BME280;40368;49.350;8.152;2022-08-06T00:55:31;1008.6;;;28.57;31.49
54459;BME280;40368;49.350;8.152;2022-08-06T00:56:08;1008.6;;;28.59;31.46
54459;BME280;40368;49.350;8.152;2022-08-06T00:57:22;1008.6;;;28.58;31.43
54459;BME280;40368;49.350;8.152;2022-08-06T00:58:00;1008.6;;;28.57;31.4
54459;BME280;40368;49.350;8.152;2022-08-06T01:00:28;1008.6;;;28.64;31.3
54459;BME280;40368;49.350;8.152;2022-08-06T01:01:05;1008.6;;;28.63;31.47
54459;BME280;40368;49.350;8.152;2022-08-06T01:02:19;1008.6;;;28.58;31.24
54459;BME280;40368;49.350;8.152;2022-08-06T01:03:33;1008.6;;;28.5;30.84
54459;BME280;40368;49.350;8.152;2022-08-06T01:04:10;1008.6;;;28.53;31.45
54459;BME280;40368;49.350;8.152;2022-08-06T01:05:24;1008.6;;;28.51;31.54
54459;BME280;40368;49.350;8.152;2022-08-06T01:06:01;1008.6;;;28.5;31.46
54459;BME280;40368;49.350;8.152;2022-08-06T01:07:15;1008.6;;;28.52;31.65
54459;BME280;40368;49.350;8.152;2022-08-06T01:08:30;1008.6;;;28.49;31.34
54459;BME280;40368;49.350;8.152;2022-08-06T01:09:07;1008.6;;;28.5;31.32
54459;BME280;40368;49.350;8.152;2022-08-06T01:10:21;1008.7;;;28.44;31.61
54459;BME280;40368;49.350;8.152;2022-08-06T01:11:35;1008.6;;;28.46;31.4
54459;BME280;40368;49.350;8.152;2022-08-06T01:12:12;1008.7;;;28.43;31.71
54459;BME280;40368;49.350;8.152;2022-08-06T01:13:26;1008.7;;;28.48;31.29
54459;BME280;40368;49.350;8.152;2022-08-06T01:14:04;1008.7;;;28.48;31.5
54459;BME280;40368;49.350;8.152;2022-08-06T01:15:17;1008.7;;;28.45;31.13
54459;BME280;40368;49.350;8.152;2022-08-06T01:16:33;1008.7;;;28.36;31.51
54459;BME280;40368;49.350;8.152;2022-08-06T01:17:12;1008.7;;;28.38;31.52
54459;BME280;40368;49.350;8.152;2022-08-06T01:18:23;1008.8;;;28.36;31.23
54459;BME280;40368;49.350;8.152;2022-08-06T01:19:01;1008.7;;;28.36;31.56
54459;BME280;40368;49.350;8.152;2022-08-06T01:20:16;1008.8;;;28.34;31.76
54459;BME280;40368;49.350;8.152;2022-08-06T01:21:34;1008.7;;;28.4;31.61
54459;BME280;40368;49.350;8.152;2022-08-06T01:22:09;1008.8;;;28.37;31.78
54459;BME280;40368;49.350;8.152;2022-08-06T01:23:23;1008.7;;;28.4;31.61
54459;BME280;40368;49.350;8.152;2022-08-06T01:24:37;1008.7;;;28.38;31.54
54459;BME280;40368;49.350;8.152;2022-08-06T01:25:13;1008.7;;;28.4;31.2
54459;BME280;40368;49.350;8.152;2022-08-06T01:26:28;1008.7;;;28.29;31.38
54459;BME280;40368;49.350;8.152;2022-08-06T01:27:11;1008.7;;;28.32;31.96
54459;BME280;40368;49.350;8.152;2022-08-06T01:28:16;1008.7;;;28.22;31.38
54459;BME280;40368;49.350;8.152;2022-08-06T01:29:32;1008.6;;;28.21;31.57
54459;BME280;40368;49.350;8.152;2022-08-06T01:30:07;1008.7;;;28.18;31.52
54459;BME280;40368;49.350;8.152;2022-08-06T01:31:23;1008.6;;;28.21;31.62
54459;BME280;40368;49.350;8.152;2022-08-06T01:32:36;1008.6;;;28.16;31.94
54459;BME280;40368;49.350;8.152;2022-08-06T01:33:12;1008.7;;;28.17;31.62
54459;BME280;40368;49.350;8.152;2022-08-06T01:34:27;1008.7;;;28.2;32.02
54459;BME280;40368;49.350;8.152;2022-08-06T01:35:04;1008.7;;;28.19;31.73
54459;BME280;40368;49.350;8.152;2022-08-06T01:36:19;1008.7;;;28.24;31.63
54459;BME280;40368;49.350;8.152;2022-08-06T01:37:33;1008.6;;;28.27;31.63
54459;BME280;40368;49.350;8.152;2022-08-06T01:38:10;1008.7;;;28.25;31.92
54459;BME280;40368;49.350;8.152;2022-08-06T01:39:23;1008.7;;;28.22;31.68
54459;BME280;40368;49.350;8.152;2022-08-06T01:40:02;1008.7;;;28.25;31.45
54459;BME280;40368;49.350;8.152;2022-08-06T01:41:16;1008.7;;;28.21;31.51
54459;BME280;40368;49.350;8.152;2022-08-06T01:42:28;1008.7;;;28.16;31.82
54459;BME280;40368;49.350;8.152;2022-08-06T01:43:06;1008.7;;;28.18;31.59
54459;BME280;40368;49.350;8.152;2022-08-06T01:44:20;1008.7;;;28.16;31.76
54459;BME280;40368;49.350;8.152;2022-08-06T01:45:34;1008.7;;;28.11;31.99
54459;BME280;40368;49.350;8.152;2022-08-06T01:46:10;1008.7;;;28.12;31.62
54459;BME280;40368;49.350;8.152;2022-08-06T01:47:24;1008.7;;;28.1;31.91
54459;BME280;40368;49.350;8.152;2022-08-06T01:48:02;1008.7;;;28.11;31.83
54459;BME280;40368;49.350;8.152;2022-08-06T01:49:18;1008.7;;;28.12;31.95
54459;BME280;40368;49.350;8.152;2022-08-06T01:50:32;1008.7;;;28.08;31.56
54459;BME280;40368;49.350;8.152;2022-08-06T01:51:07;1008.7;;;28.13;31.42
54459;BME280;40368;49.350;8.152;2022-08-06T01:53:28;1008.7;;;28.13;31.8
54459;BME280;40368;49.350;8.152;2022-08-06T01:54:06;1008.6;;;28.06;32.15
54459;BME280;40368;49.350;8.152;2022-08-06T01:55:18;1008.7;;;28.12;31.75
54459;BME280;40368;49.350;8.152;2022-08-06T01:56:33;1008.7;;;28.14;32.14
54459;BME280;40368;49.350;8.152;2022-08-06T01:57:09;1008.7;;;28.12;31.84
54459;BME280;40368;49.350;8.152;2022-08-06T01:58:24;1008.6;;;28.12;32.04
54459;BME280;40368;49.350;8.152;2022-08-06T01:59:01;1008.7;;;28.14;31.55
54459;BME280;40368;49.350;8.152;2022-08-06T02:00:15;1008.6;;;28.11;31.45
54459;BME280;40368;49.350;8.152;2022-08-06T02:01:29;1008.6;;;28.06;32.16
54459;BME280;40368;49.350;8.152;2022-08-06T02:02:07;1008.3;;;28.71;31.58
54459;BME280;40368;49.350;8.152;2022-08-06T02:05:11;1008.6;;;27.87;32.35
54459;BME280;40368;49.350;8.152;2022-08-06T02:06:27;1008.6;;;27.82;32.38
54459;BME280;40368;49.350;8.152;2022-08-06T02:07:02;1008.6;;;27.84;32.03
54459;BME280;40368;49.350;8.152;2022-08-06T02:08:16;1008.6;;;27.82;32.11
54459;BME280;40368;49.350;8.152;2022-08-06T02:09:30;1008.6;;;27.88;32.07
54459;BME280;40368;49.350;8.152;2022-08-06T02:10:08;1008.6;;;27.85;32.29
54459;BME280;40368;49.350;8.152;2022-08-06T02:11:22;1008.6;;;27.83;32.36
54459;BME280;40368;49.350;8.152;2022-08-06T02:12:00;1008.7;;;27.85;31.67
54459;BME280;40368;49.350;8.152;2022-08-06T02:13:13;1008.6;;;27.87;32.09
54459;BME280;40368;49.350;8.152;2022-08-06T02:14:27;1008.7;;;27.84;31.45
54459;BME280;40368;49.350;8.152;2022-08-06T02:15:05;1008.7;;;27.87;32.07
54459;BME280;40368;49.350;8.152;2022-08-06T02:16:18;1008.7;;;27.76;31.71
54459;BME280;40368;49.350;8.152;2022-08-06T02:17:33;1008.7;;;27.58;31.66
54459;BME280;40368;49.350;8.152;2022-08-06T02:18:09;1008.7;;;27.69;31.52
54459;BME280;40368;49.350;8.152;2022-08-06T02:19:23;1008.8;;;27.54;31.99
54459;BME280;40368;49.350;8.152;2022-08-06T02:20:01;1008.8;;;27.52;32.07
54459;BME280;40368;49.350;8.152;2022-08-06T02:21:16;1008.8;;;27.55;31.88
54459;BME280;40368;49.350;8.152;2022-08-06T02:22:29;1008.8;;;27.53;31.47
54459;BME280;40368;49.350;8.152;2022-08-06T02:23:07;1008.8;;;27.55;31.34
54459;BME280;40368;49.350;8.152;2022-08-06T02:24:20;1008.8;;;27.57;31.88
54459;BME280;40368;49.350;8.152;2022-08-06T02:25:34;1008.8;;;27.64;31.16
54459;BME280;40368;49.350;8.152;2022-08-06T02:26:11;1008.8;;;27.61;31.49
54459;BME280;40368;49.350;8.152;2022-08-06T02:27:25;1008.8;;;27.66;31.19
54459;BME280;40368;49.350;8.152;2022-08-06T02:28:03;1008.9;;;27.68;31.33
54459;BME280;40368;49.350;8.152;2022-08-06T02:29:16;1008.9;;;27.65;31.06
54459;BME280;40368;49.350;8.152;2022-08-06T02:30:31;1008.9;;;27.64;31.07
54459;BME280;40368;49.350;8.152;2022-08-06T02:31:08;1008.8;;;27.65;31.12
54459;BME280;40368;49.350;8.152;2022-08-06T02:32:22;1008.8;;;27.59;30.68
54459;BME280;40368;49.350;8.152;2022-08-06T02:33:36;1008.8;;;27.52;31.17
54459;BME280;40368;49.350;8.152;2022-08-06T02:34:13;1008.9;;;27.53;31.32
54459;BME280;40368;49.350;8.152;2022-08-06T02:35:27;1008.9;;;27.54;31.29
54459;BME280;40368;49.350;8.152;2022-08-06T02:36:06;1008.9;;;27.52;30.99
54459;BME280;40368;49.350;8.152;2022-08-06T02:37:20;1008.9;;;27.58;31.2
54459;BME280;40368;49.350;8.152;2022-08-06T02:38:34;1008.9;;;27.56;31.28
54459;BME280;40368;49.350;8.152;2022-08-06T02:39:11;1008.9;;;27.57;30.87
54459;BME280;40368;49.350;8.152;2022-08-06T02:40:24;1008.9;;;27.6;30.74
54459;BME280;40368;49.350;8.152;2022-08-06T02:41:01;1008.9;;;27.58;31.21
54459;BME280;40368;49.350;8.152;2022-08-06T02:42:16;1008.9;;;27.62;30.64
54459;BME280;40368;49.350;8.152;2022-08-06T02:43:31;1009;;;27.58;30.58
54459;BME280;40368;49.350;8.152;2022-08-06T02:44:09;1009;;;27.61;31.71
54459;BME280;40368;49.350;8.152;2022-08-06T02:45:21;1009;;;27.53;30.82
54459;BME280;40368;49.350;8.152;2022-08-06T02:46:36;1009;;;27.36;30.88
54459;BME280;40368;49.350;8.152;2022-08-06T02:47:12;1009;;;27.42;30.72
54459;BME280;40368;49.350;8.152;2022-08-06T02:48:26;1009;;;27.34;31.48
54459;BME280;40368;49.350;8.152;2022-08-06T02:49:04;1009;;;27.29;30.99
54459;BME280;40368;49.350;8.152;2022-08-06T02:50:17;1009;;;27.34;31.52
54459;BME280;40368;49.350;8.152;2022-08-06T02:51:32;1009.1;;;27.24;31.18
54459;BME280;40368;49.350;8.152;2022-08-06T02:53:15;1009;;;27.29;31.58
54459;BME280;40368;49.350;8.152;2022-08-06T02:53:54;1009;;;27.24;31.88
54459;BME280;40368;49.350;8.152;2022-08-06T02:55:06;1009.1;;;27.31;31.82
54459;BME280;40368;49.350;8.152;2022-08-06T02:56:19;1009.1;;;27.34;32.01
54459;BME280;40368;49.350;8.152;2022-08-06T02:57:36;1009.1;;;27.47;31.06
54459;BME280;40368;49.350;8.152;2022-08-06T02:58:11;1009.1;;;27.43;31.76
54459;BME280;40368;49.350;8.152;2022-08-06T02:59:26;1009.1;;;27.38;30.91
54459;BME280;40368;49.350;8.152;2022-08-06T03:00:04;1009.1;;;27.44;31.62
54459;BME280;40368;49.350;8.152;2022-08-06T03:01:18;1009.1;;;27.23;31.08
54459;BME280;40368;49.350;8.152;2022-08-06T03:02:30;1009.1;;;27.16;31.7
54459;BME280;40368;49.350;8.152;2022-08-06T03:03:07;1009.1;;;27.16;31.47
54459;BME280;40368;49.350;8.152;2022-08-06T03:04:21;1009.1;;;27.16;31.22
54459;BME280;40368;49.350;8.152;2022-08-06T03:05:35;1009;;;27.2;31.26
54459;BME280;40368;49.350;8.152;2022-08-06T03:06:12;1009;;;27.2;31.46
54459;BME280;40368;49.350;8.152;2022-08-06T03:07:26;1009;;;27.15;31.77
54459;BME280;40368;49.350;8.152;2022-08-06T03:08:04;1009;;;27.16;31.14
54459;BME280;40368;49.350;8.152;2022-08-06T03:09:17;1009;;;27.18;31.69
54459;BME280;40368;49.350;8.152;2022-08-06T03:10:31;1009;;;27.29;31.49
54459;BME280;40368;49.350;8.152;2022-08-06T03:11:09;1009;;;27.22;31.78
54459;BME280;40368;49.350;8.152;2022-08-06T03:12:23;1009;;;27.33;31.12
54459;BME280;40368;49.350;8.152;2022-08-06T03:13:00;1009.1;;;27.33;31.22
54459;BME280;40368;49.350;8.152;2022-08-06T03:14:14;1009.1;;;27.3;30.94
54459;BME280;40368;49.350;8.152;2022-08-06T03:15:28;1009.2;;;27.17;31.53
54459;BME280;40368;49.350;8.152;2022-08-06T03:16:05;1009.1;;;27.22;30.86
54459;BME280;40368;49.350;8.152;2022-08-06T03:17:20;1009.2;;;27.22;31.7
54459;BME280;40368;49.350;8.152;2022-08-06T03:18:33;1009.2;;;27.27;31.59
54459;BME280;40368;49.350;8.152;2022-08-06T03:19:10;1009.2;;;27.26;31.08
54459;BME280;40368;49.350;8.152;2022-08-06T03:20:25;1009.2;;;27.22;30.82
54459;BME280;40368;49.350;8.152;2022-08-06T03:21:02;1009.2;;;27.29;30.76
54459;BME280;40368;49.350;8.152;2022-08-06T03:22:16;1009.2;;;27.19;30.81
54459;BME280;40368;49.350;8.152;2022-08-06T03:23:30;1009.2;;;26.92;30.93
54459;BME280;40368;49.350;8.152;2022-08-06T03:24:07;1009.2;;;27.05;30.83
54459;BME280;40368;49.350;8.152;2022-08-06T03:25:21;1009.2;;;26.84;31.37
54459;BME280;40368;49.350;8.152;2022-08-06T03:26:35;1009.2;;;26.85;32.02
54459;BME280;40368;49.350;8.152;2022-08-06T03:27:12;1009.2;;;26.82;31.13
54459;BME280;40368;49.350;8.152;2022-08-06T03:28:26;1009.2;;;26.94;31.23
54459;BME280;40368;49.350;8.152;2022-08-06T03:29:03;1009.1;;;26.92;31.5
54459;BME280;40368;49.350;8.152;2022-08-06T03:30:18;1009.2;;;26.97;30.64
54459;BME280;40368;49.350;8.152;2022-08-06T03:31:32;1009.2;;;26.92;30.02
54459;BME280;40368;49.350;8.152;2022-08-06T03:32:09;1009.2;;;27;30.29
54459;BME280;40368;49.350;8.152;2022-08-06T03:33:23;1009.2;;;27;29.91
54459;BME280;40368;49.350;8.152;2022-08-06T03:34:00;1009.1;;;26.91;31.16
54459;BME280;40368;49.350;8.152;2022-08-06T03:35:14;1009.1;;;27;29.77
54459;BME280;40368;49.350;8.152;2022-08-06T03:36:28;1009.1;;;27.02;30.99
54459;BME280;40368;49.350;8.152;2022-08-06T03:37:06;1009.1;;;26.98;29.69
54459;BME280;40368;49.350;8.152;2022-08-06T03:38:19;1009.1;;;27.09;30.41
54459;BME280;40368;49.350;8.152;2022-08-06T03:39:33;1009.1;;;27.11;29.97
54459;BME280;40368;49.350;8.152;2022-08-06T03:40:11;1009.1;;;27.14;29.68
54459;BME280;40368;49.350;8.152;2022-08-06T03:41:25;1009.2;;;27.14;30.5
54459;BME280;40368;49.350;8.152;2022-08-06T03:42:02;1009.1;;;27.1;30.22
54459;BME280;40368;49.350;8.152;2022-08-06T03:43:16;1009.2;;;27.2;30.63
54459;BME280;40368;49.350;8.152;2022-08-06T03:44:30;1009.2;;;27.18;28.93
54459;BME280;40368;49.350;8.152;2022-08-06T03:45:07;1009.2;;;27.23;29.41
54459;BME280;40368;49.350;8.152;2022-08-06T03:46:23;1009.2;;;27.02;29.35
54459;BME280;40368;49.350;8.152;2022-08-06T03:47:37;1009.2;;;26.98;30.15
54459;BME280;40368;49.350;8.152;2022-08-06T03:48:13;1009.2;;;26.97;29.84
54459;BME280;40368;49.350;8.152;2022-08-06T03:49:27;1009.2;;;27.06;30.29
54459;BME280;40368;49.350;8.152;2022-08-06T03:50:05;1009.2;;;27.02;29.83
54459;BME280;40368;49.350;8.152;2022-08-06T03:51:20;1009.2;;;27.07;29.16
54459;BME280;40368;49.350;8.152;2022-08-06T03:52:32;1009.2;;;27.04;29.83
54459;BME280;40368;49.350;8.152;2022-08-06T03:54:25;1009.3;;;27.07;29.81
54459;BME280;40368;49.350;8.152;2022-08-06T03:56:06;1009.2;;;27.05;29.41
54459;BME280;40368;49.350;8.152;2022-08-06T03:57:20;1009.2;;;26.99;29.46
54459;BME280;40368;49.350;8.152;2022-08-06T03:58:35;1009.2;;;26.86;30.02
54459;BME280;40368;49.350;8.152;2022-08-06T03:59:11;1009.2;;;26.92;29.36
54459;BME280;40368;49.350;8.152;2022-08-06T04:00:25;1009.2;;;26.84;30.68
54459;BME280;40368;49.350;8.152;2022-08-06T04:01:03;1009.2;;;26.85;29.61
54459;BME280;40368;49.350;8.152;2022-08-06T04:02:16;1009.2;;;26.84;29.83
54459;BME280;40368;49.350;8.152;2022-08-06T04:03:31;1009.2;;;26.76;30.36
54459;BME280;40368;49.350;8.152;2022-08-06T04:04:08;1009.2;;;26.77;29.89
54459;BME280;40368;49.350;8.152;2022-08-06T04:05:22;1009.2;;;26.73;29.55
54459;BME280;40368;49.350;8.152;2022-08-06T04:06:36;1009.2;;;26.67;30.34
54459;BME280;40368;49.350;8.152;2022-08-06T04:07:14;1009.3;;;26.66;29.87
54459;BME280;40368;49.350;8.152;2022-08-06T04:08:27;1009.2;;;26.69;30.32
54459;BME280;40368;49.350;8.152;2022-08-06T04:09:04;1009.3;;;26.71;30.19
54459;BME280;40368;49.350;8.152;2022-08-06T04:10:18;1009.3;;;26.69;29.65
54459;BME280;40368;49.350;8.152;2022-08-06T04:11:32;1009.3;;;26.78;29.65
54459;BME280;40368;49.350;8.152;2022-08-06T04:12:09;1009.3;;;26.73;29.67
54459;BME280;40368;49.350;8.152;2022-08-06T04:13:24;1009.3;;;26.73;30.61
54459;BME280;40368;49.350;8.152;2022-08-06T04:14:01;1009.3;;;26.73;29.49
54459;BME280;40368;49.350;8.152;2022-08-06T04:15:15;1009.3;;;26.78;30.02
54459;BME280;40368;49.350;8.152;2022-08-06T04:16:29;1009.3;;;26.73;30.2
54459;BME280;40368;49.350;8.152;2022-08-06T04:17:06;1009.3;;;26.76;29.97
54459;BME280;40368;49.350;8.152;2022-08-06T04:18:21;1009.4;;;26.77;30.53
54459;BME280;40368;49.350;8.152;2022-08-06T04:19:34;1009.4;;;26.71;30.21
54459;BME280;40368;49.350;8.152;2022-08-06T04:20:13;1009.3;;;26.75;29.64
54459;BME280;40368;49.350;8.152;2022-08-06T04:21:26;1009.4;;;26.76;30.03
54459;BME280;40368;49.350;8.152;2022-08-06T04:22:03;1009.4;;;26.74;29.87
54459;BME280;40368;49.350;8.152;2022-08-06T04:23:17;1009.4;;;26.71;29.55
54459;BME280;40368;49.350;8.152;2022-08-06T04:24:31;1009.5;;;26.57;29.68
54459;BME280;40368;49.350;8.152;2022-08-06T04:25:08;1009.4;;;26.63;29.88
54459;BME280;40368;49.350;8.152;2022-08-06T04:26:22;1009.5;;;26.58;29.67
54459;BME280;40368;49.350;8.152;2022-08-06T04:27:00;1009.5;;;26.58;30.19
54459;BME280;40368;49.350;8.152;2022-08-06T04:28:13;1009.4;;;26.58;30.62
54459;BME280;40368;49.350;8.152;2022-08-06T04:29:27;1009.4;;;26.63;30.01
54459;BME280;40368;49.350;8.152;2022-08-06T04:30:05;1009.4;;;26.63;29.71
54459;BME280;40368;49.350;8.152;2022-08-06T04:31:19;1009.4;;;26.6;29.99
54459;BME280;40368;49.350;8.152;2022-08-06T04:32:33;1009.5;;;26.6;30.45
54459;BME280;40368;49.350;8.152;2022-08-06T04:33:11;1009.4;;;26.56;29.75
54459;BME280;40368;49.350;8.152;2022-08-06T04:34:24;1009.5;;;26.64;29.79
54459;BME280;40368;49.350;8.152;2022-08-06T04:35:02;1009.5;;;26.64;29.76
54459;BME280;40368;49.350;8.152;2022-08-06T04:36:15;1009.5;;;26.6;29.89
54459;BME280;40368;49.350;8.152;2022-08-06T04:37:29;1009.5;;;26.5;30.21
54459;BME280;40368;49.350;8.152;2022-08-06T04:38:06;1009.5;;;26.54;30.17
54459;BME280;40368;49.350;8.152;2022-08-06T04:39:20;1009.5;;;26.52;30.21
54459;BME280;40368;49.350;8.152;2022-08-06T04:40:35;1009.5;;;26.56;29.65
54459;BME280;40368;49.350;8.152;2022-08-06T04:42:26;1009.6;;;26.42;29.77
54459;BME280;40368;49.350;8.152;2022-08-06T04:43:04;1009.6;;;26.51;29.66
54459;BME280;40368;49.350;8.152;2022-08-06T04:44:17;1009.6;;;26.43;30.51
54459;BME280;40368;49.350;8.152;2022-08-06T04:45:31;1009.6;;;26.48;30.64
54459;BME280;40368;49.350;8.152;2022-08-06T04:46:08;1009.6;;;26.46;30.2
54459;BME280;40368;49.350;8.152;2022-08-06T04:47:22;1009.6;;;26.47;29.75
54459;BME280;40368;49.350;8.152;2022-08-06T04:47:59;1009.6;;;26.5;30.53
54459;BME280;40368;49.350;8.152;2022-08-06T04:49:13;1009.6;;;26.47;30.07
54459;BME280;40368;49.350;8.152;2022-08-06T04:50:27;1009.6;;;26.58;30.4
54459;BME280;40368;49.350;8.152;2022-08-06T04:51:05;1009.6;;;26.53;31.15
54459;BME280;40368;49.350;8.152;2022-08-06T04:52:20;1009.6;;;26.56;29.61
54459;BME280;40368;49.350;8.152;2022-08-06T04:53:24;1009.6;;;26.45;29.85
54459;BME280;40368;49.350;8.152;2022-08-06T04:54:03;1009.6;;;26.51;29.78
54459;BME280;40368;49.350;8.152;2022-08-06T04:55:17;1009.6;;;26.41;30.65
54459;BME280;40368;49.350;8.152;2022-08-06T04:56:30;1009.6;;;26.4;29.96
54459;BME280;40368;49.350;8.152;2022-08-06T04:57:07;1009.6;;;26.38;30.51
54459;BME280;40368;49.350;8.152;2022-08-06T04:58:21;1009.6;;;26.37;30.52
54459;BME280;40368;49.350;8.152;2022-08-06T04:59:35;1009.6;;;26.4;30.32
54459;BME280;40368;49.350;8.152;2022-08-06T05:00:12;1009.6;;;26.37;30.73
54459;BME280;40368;49.350;8.152;2022-08-06T05:01:26;1009.6;;;26.4;29.94
54459;BME280;40368;49.350;8.152;2022-08-06T05:02:03;1009.6;;;26.41;30
54459;BME280;40368;49.350;8.152;2022-08-06T05:03:17;1009.7;;;26.35;29.89
54459;BME280;40368;49.350;8.152;2022-08-06T05:04:32;1009.7;;;26.29;30.37
54459;BME280;40368;49.350;8.152;2022-08-06T05:05:09;1009.8;;;26.34;29.89
54459;BME280;40368;49.350;8.152;2022-08-06T05:06:23;1009.8;;;26.29;30.14
54459;BME280;40368;49.350;8.152;2022-08-06T05:07:01;1009.8;;;26.29;30.28
54459;BME280;40368;49.350;8.152;2022-08-06T05:08:14;1009.8;;;26.32;30.9
54459;BME280;40368;49.350;8.152;2022-08-06T05:09:28;1009.8;;;26.42;30.3
54459;BME280;40368;49.350;8.152;2022-08-06T05:10:05;1009.8;;;26.38;30.66
54459;BME280;40368;49.350;8.152;2022-08-06T05:11:21;1009.7;;;26.44;29.89
54459;BME280;40368;49.350;8.152;2022-08-06T05:12:36;1009.8;;;26.43;30.14
54459;BME280;40368;49.350;8.152;2022-08-06T05:13:11;1009.8;;;26.43;30.42
54459;BME280;40368;49.350;8.152;2022-08-06T05:14:31;1009.9;;;26.35;29.84
54459;BME280;40368;49.350;8.152;2022-08-06T05:15:04;1009.8;;;26.41;30.22
54459;BME280;40368;49.350;8.152;2022-08-06T05:16:16;1009.9;;;26.28;30.13
54459;BME280;40368;49.350;8.152;2022-08-06T05:17:32;1009.9;;;26.24;30.31
54459;BME280;40368;49.350;8.152;2022-08-06T05:18:08;1009.9;;;26.27;31.05
54459;BME280;40368;49.350;8.152;2022-08-06T05:19:23;1009.9;;;26.24;30.36
54459;BME280;40368;49.350;8.152;2022-08-06T05:20:37;1009.9;;;26.25;30.89
54459;BME280;40368;49.350;8.152;2022-08-06T05:21:14;1009.9;;;26.21;30.67
54459;BME280;40368;49.350;8.152;2022-08-06T05:22:27;1010;;;26.36;30.63
54459;BME280;40368;49.350;8.152;2022-08-06T05:23:04;1009.9;;;26.31;30.58
54459;BME280;40368;49.350;8.152;2022-08-06T05:24:18;1010;;;26.41;30.37
54459;BME280;40368;49.350;8.152;2022-08-06T05:25:32;1010;;;26.35;30.14
54459;BME280;40368;49.350;8.152;2022-08-06T05:26:09;1010;;;26.35;30.75
54459;BME280;40368;49.350;8.152;2022-08-06T05:27:23;1010;;;26.43;31.03
54459;BME280;40368;49.350;8.152;2022-08-06T05:28:00;1009.9;;;26.38;30.89
54459;BME280;40368;49.350;8.152;2022-08-06T05:29:17;1010;;;26.47;30.42
54459;BME280;40368;49.350;8.152;2022-08-06T05:30:28;1009.9;;;26.48;30.82
54459;BME280;40368;49.350;8.152;2022-08-06T05:31:05;1010;;;26.49;30.66
54459;BME280;40368;49.350;8.152;2022-08-06T05:32:19;1010;;;26.49;30.53
54459;BME280;40368;49.350;8.152;2022-08-06T05:33:34;1010;;;26.43;30.52
54459;BME280;40368;49.350;8.152;2022-08-06T05:34:11;1010.1;;;26.47;30.26
54459;BME280;40368;49.350;8.152;2022-08-06T05:35:25;1010;;;26.48;30.41
54459;BME280;40368;49.350;8.152;2022-08-06T05:36:03;1010;;;26.49;30.63
54459;BME280;40368;49.350;8.152;2022-08-06T05:37:16;1010;;;26.39;30.25
54459;BME280;40368;49.350;8.152;2022-08-06T05:38:31;1010;;;26.32;30.4
54459;BME280;40368;49.350;8.152;2022-08-06T05:39:07;1010;;;26.36;30.35